Latest Weather Observations for Moree

IDN60801

Issued at 5:33 am EST Saturday 1 October 2016 (issued every 30 minutes, with the page automatically refreshed every 10 minutes)

About weather observations | Map of weather stations | Latest weather observations for NSW | Other Formats
Station Details ID: 053115 Name: MOREE AERO Lat: -29.49 Lon: 149.85 Height: 213.0 m
Data from the previous 72 hours. | See also: Recent months at Moree
Date/Time
EST
Temp
°C
App
Temp
°C
Dew
Point
°C
Rel
Hum
%
Delta-T
°C
Wind Press
QNH
hPa
Press
MSL
hPa
Rain since
9am
mm
Dir  Spd
km/h
Gust
km/h
Spd
kts
Gust
kts
01/05:30am 5.4 2.7 3.9 90 0.6 WNW 7 7 4 4 1012.7 1012.3 0.0
01/05:00am 5.5 2.4 3.8 89 0.7 N 9 9 5 5 1012.3 1011.9 0.0
01/04:30am 6.1 3.5 4.4 89 0.7 N 7 9 4 5 1011.7 1011.3 0.0
01/04:00am 6.1 3.4 3.8 85 1.0 N 7 9 4 5 1011.1 1010.7 0.0
01/03:30am 7.9 4.8 3.4 73 1.9 NW 9 9 5 5 1010.9 1010.5 0.0
01/03:00am 8.4 7.0 3.3 70 2.2 CALM 0 4 0 2 1010.5 1010.1 0.0
01/02:30am 9.0 5.8 3.2 67 2.5 NW 9 9 5 5 1010.8 1010.4 0.0
01/02:00am 9.0 5.4 3.2 67 2.5 NW 11 11 6 6 1011.0 1010.6 0.0
01/01:30am 9.6 6.1 3.6 66 2.6 NW 11 13 6 7 1010.9 1010.5 0.0
01/01:00am 9.3 5.5 3.7 68 2.5 NNW 13 15 7 8 1010.6 1010.2 0.0
01/12:30am 9.2 5.4 3.8 69 2.4 NNW 13 15 7 8 1010.7 1010.3 0.0
01/12:00am 9.4 5.6 4.0 69 2.4 NNW 13 15 7 8 1010.7 1010.3 0.0
 
Date/Time
EST
Temp
°C
App
Temp
°C
Dew
Point
°C
Rel
Hum
%
Delta-T
°C
Wind Press
QNH
hPa
Press
MSL
hPa
Rain since
9am
mm
Dir  Spd
km/h
Gust
km/h
Spd
kts
Gust
kts
30/11:30pm 10.2 6.8 3.9 65 2.8 NNW 11 13 6 7 1010.7 1010.3 0.0
30/11:00pm 10.8 6.9 3.6 61 3.2 NNW 13 15 7 8 1010.8 1010.4 0.0
30/10:30pm 11.0 7.2 4.0 62 3.2 NNW 13 15 7 8 1010.9 1010.5 0.0
30/10:00pm 11.1 6.9 3.9 61 3.2 NNW 15 19 8 10 1011.1 1010.7 0.0
30/09:30pm 11.4 7.7 4.2 61 3.3 NNW 13 17 7 9 1010.9 1010.5 0.0
30/09:00pm 11.7 8.0 4.2 60 3.4 NNW 13 17 7 9 1010.9 1010.5 0.0
30/08:30pm 12.1 8.3 4.1 58 3.6 NNW 13 15 7 8 1010.8 1010.4 0.0
30/08:00pm 12.4 8.1 3.1 53 4.2 NNW 15 17 8 9 1010.4 1010.0 0.0
30/07:30pm 12.8 8.8 2.9 51 4.4 NNW 13 15 7 8 1010.0 1009.6 0.0
30/07:00pm 13.0 9.5 3.4 52 4.3 NNW 11 13 6 7 1009.6 1009.2 0.0
30/06:30pm 12.9 8.7 3.6 53 4.2 NW 15 17 8 9 1009.3 1008.9 0.0
30/06:00pm 14.2 9.9 3.4 48 4.9 NW 15 17 8 9 1008.8 1008.4 0.0
30/05:30pm 16.0 9.9 2.8 41 6.0 WNW 24 30 13 16 1008.4 1008.0 0.0
30/05:00pm 16.8 9.8 2.0 37 6.7 WNW 28 35 15 19 1008.3 1007.9 0.0
30/04:30pm 17.2 9.8 1.6 35 7.0 WNW 30 39 16 21 1007.9 1007.4 0.0
30/04:00pm 17.3 10.6 3.9 41 6.4 WNW 28 39 15 21 1007.6 1007.1 0.0
30/03:30pm 17.5 9.8 2.3 36 7.0 WNW 32 46 17 25 1007.3 1006.8 0.0
30/03:00pm 17.4 9.5 2.2 36 7.0 WNW 33 44 18 24 1007.2 1006.7 0.0
30/02:30pm 17.7 9.6 3.2 38 6.8 WNW 35 46 19 25 1007.1 1006.6 0.0
30/02:09pm 17.3 9.3 1.7 35 7.1 WNW 33 52 18 28 1007.1 1006.6 0.0
30/02:00pm 17.4 7.9 1.8 35 7.1 WNW 41 56 22 30 1007.1 1006.6 0.0
30/01:33pm 17.3 9.6 3.2 39 6.6 WNW 33 54 18 29 1007.2 1006.7 0.0
30/01:30pm 17.3 9.8 4.6 43 6.1 NW 33 48 18 26 1007.1 1006.6 0.0
30/01:00pm 16.8 8.7 3.1 40 6.4 NW 35 50 19 27 1007.2 1006.7 0.0
30/12:30pm 15.6 8.0 2.7 42 5.9 NW 32 46 17 25 1007.6 1007.1 0.0
30/12:00pm 15.4 8.4 2.2 41 6.0 WNW 28 33 15 18 1007.7 1007.2 0.0
30/11:30am 16.6 8.3 4.0 43 5.9 WNW 37 48 20 26 1007.7 1007.2 0.0
30/11:00am 14.9 6.8 3.1 45 5.4 NW 35 50 19 27 1008.0 1007.5 0.0
30/10:30am 14.9 7.2 3.4 46 5.3 NW 33 48 18 26 1007.6 1007.1 0.0
30/10:00am 15.6 9.1 4.6 48 5.2 NW 28 39 15 21 1007.6 1007.1 0.0
30/09:30am 15.3 8.4 4.7 49 5.0 NW 30 37 16 20 1007.6 1007.1 0.0
30/09:00am 14.0 7.3 3.5 49 4.8 NW 28 39 15 21 1007.7 1007.2 5.6
30/08:30am 13.4 7.1 4.0 53 4.3 NW 26 39 14 21 1007.7 1007.2 5.6
30/08:00am 12.2 7.0 3.4 55 4.0 NNW 20 28 11 15 1007.7 1007.2 5.6
30/07:30am 10.6 6.0 3.9 63 3.0 N 17 24 9 13 1007.7 1007.2 5.6
30/07:00am 9.2 4.9 3.2 66 2.6 N 15 20 8 11 1007.6 1007.1 5.6
30/06:30am 7.4 3.4 3.1 74 1.8 N 13 15 7 8 1007.5 1007.0 5.6
30/06:00am 5.9 1.9 2.7 80 1.3 N 13 15 7 8 1007.6 1007.1 5.6
30/05:30am 5.8 1.8 2.6 80 1.3 N 13 17 7 9 1007.3 1006.8 5.6
30/05:00am 6.3 2.3 2.8 78 1.5 N 13 15 7 8 1007.1 1006.6 5.6
30/04:30am 6.1 2.1 3.1 81 1.3 N 13 15 7 8 1006.9 1006.5 5.6
30/04:00am 6.0 2.4 3.2 82 1.2 NNE 11 13 6 7 1006.7 1006.3 5.6
30/03:30am 6.2 2.7 3.5 83 1.2 NNE 11 11 6 6 1006.6 1006.2 5.6
30/03:00am 6.2 2.7 3.4 82 1.2 NNE 11 13 6 7 1006.7 1006.3 5.6
30/02:30am 6.8 3.7 3.8 81 1.3 N 9 11 5 6 1006.8 1006.4 5.6
30/02:00am 7.2 3.7 3.3 76 1.7 NNE 11 13 6 7 1007.2 1006.7 5.6
30/01:30am 7.8 4.3 3.3 73 1.9 N 11 11 6 6 1007.3 1006.8 5.6
30/01:00am 8.5 5.3 3.1 69 2.3 N 9 11 5 6 1007.3 1006.8 5.6
30/12:30am 9.0 4.9 2.1 62 2.9 N 13 15 7 8 1007.1 1006.6 5.6
30/12:00am 10.1 5.8 1.0 53 3.8 NW 13 15 7 8 1007.1 1006.6 5.6
 
Date/Time
EST
Temp
°C
App
Temp
°C
Dew
Point
°C
Rel
Hum
%
Delta-T
°C
Wind Press
QNH
hPa
Press
MSL
hPa
Rain since
9am
mm
Dir  Spd
km/h
Gust
km/h
Spd
kts
Gust
kts
29/11:30pm 10.3 6.5 1.9 56 3.6 NW 11 13 6 7 1007.1 1006.6 5.6
29/11:00pm 10.0 6.7 2.6 60 3.2 NNW 9 9 5 5 1006.9 1006.5 5.6
29/10:30pm 10.7 7.5 3.0 59 3.4 NW 9 11 5 6 1006.9 1006.5 5.4
29/10:00pm 11.2 7.7 3.3 58 3.5 NW 11 13 6 7 1006.8 1006.4 5.4
29/09:30pm 11.9 8.7 4.9 62 3.2 NW 11 13 6 7 1006.5 1006.1 5.4
29/09:00pm 12.2 9.0 6.7 69 2.7 NW 13 17 7 9 1006.2 1005.8 5.4
29/08:30pm 11.8 9.4 8.8 82 1.5 N 11 13 6 7 1005.9 1005.5 5.4
29/08:00pm 12.3 10.8 9.0 80 1.7 NNW 7 9 4 5 1005.5 1005.1 5.4
29/07:30pm 13.1 10.4 9.0 76 2.1 NW 13 20 7 11 1005.2 1004.8 5.4
29/07:00pm 14.0 11.3 9.0 72 2.6 N 13 17 7 9 1004.5 1004.1 5.4
29/06:30pm 14.5 11.1 9.3 71 2.7 N 17 24 9 13 1003.8 1003.3 5.4
29/06:00pm 15.4 12.1 9.5 68 3.1 N 17 24 9 13 1003.3 1002.8 5.4
29/05:30pm 16.5 13.3 10.1 66 3.4 NNW 17 26 9 14 1003.0 1002.5 5.4
29/05:00pm 16.9 13.4 11.0 68 3.2 NNW 20 26 11 14 1002.7 1002.2 5.4
29/04:30pm 16.8 13.2 10.6 67 3.3 NNW 20 28 11 15 1002.7 1002.2 5.4
29/04:00pm 16.3 13.1 9.9 66 3.4 N 17 22 9 12 1002.5 1002.0 5.4
29/03:30pm 16.1 12.5 9.8 66 3.3 NNW 19 26 10 14 1002.5 1002.0 5.4
29/03:00pm 16.3 13.2 9.0 62 3.8 NNW 15 20 8 11 1002.4 1001.9 5.4
29/02:30pm 16.0 12.8 9.9 67 3.2 NW 17 22 9 12 1002.6 1002.1 5.4
29/02:00pm 16.2 12.2 9.2 63 3.7 W 20 26 11 14 1002.8 1002.3 5.4
29/01:30pm 16.2 14.1 13.5 84 1.5 W 17 28 9 15 1003.2 1002.7 5.4
29/01:00pm 14.6 11.1 12.3 86 1.3 W 22 30 12 16 1003.5 1003.0 5.4
29/12:44pm 13.7 10.8 12.3 91 0.8 W 19 24 10 13 1003.5 1003.0 5.4
29/12:30pm 13.0 9.4 11.7 92 0.7 W 22 28 12 15 1003.6 1003.1 5.4
29/12:19pm 12.7 8.4 10.8 88 1.0 W 24 35 13 19 1003.7 1003.2 3.4
29/12:07pm 13.0 7.3 11.1 88 1.0 WSW 32 43 17 23 1003.4 1002.9 2.8
29/12:00pm 13.6 7.2 10.8 83 1.5 W 35 48 19 26 1003.4 1002.9 2.6
29/11:55am 17.3 13.4 15.5 89 1.1 WNW 30 48 16 26 1003.2 1002.7 2.2
29/11:54am 17.7 14.5 16.2 91 0.9 WNW 28 48 15 26 1003.1 1002.6 2.2
29/11:51am 17.7 15.5 16.0 90 1.0 NW 22 33 12 18 1003.1 1002.6 1.6
29/11:33am 18.0 16.3 16.3 90 1.0 NNW 20 30 11 16 1003.0 1002.5 0.6
29/11:30am 17.9 15.5 16.4 91 0.9 NNW 24 30 13 16 1003.1 1002.6 0.6
29/11:12am 17.4 14.0 15.9 91 0.9 NNW 28 37 15 20 1003.7 1003.2 0.4
29/11:00am 17.2 13.6 15.2 88 1.2 N 28 39 15 21 1003.7 1003.2 0.4
29/10:54am 17.4 13.6 14.7 84 1.6 N 28 41 15 22 1003.8 1003.3 0.4
29/10:30am 17.8 15.7 13.5 76 2.5 N 17 22 9 12 1004.0 1003.5 0.0
29/10:00am 17.4 13.8 12.9 75 2.5 N 24 33 13 18 1004.6 1004.2 0.0
29/09:30am 18.2 13.0 11.5 65 3.7 NNE 30 41 16 22 1004.5 1004.1 0.0
29/09:00am 17.9 13.2 12.1 69 3.2 NNE 28 37 15 20 1004.7 1004.3 0.0
29/08:30am 17.3 12.9 11.6 69 3.1 NNE 26 33 14 18 1004.9 1004.5 0.0
29/08:00am 16.6 12.2 11.7 73 2.7 NNE 26 35 14 19 1004.8 1004.4 0.0
29/07:30am 16.9 11.7 11.6 71 2.9 NNE 30 37 16 20 1004.5 1004.1 0.0
29/07:00am 16.1 11.3 11.5 74 2.5 NNE 28 33 15 18 1004.5 1004.1 0.0
29/06:30am 16.3 11.5 11.5 73 2.6 NNE 28 33 15 18 1004.1 1003.6 0.0
29/06:00am 16.2 12.8 11.2 72 2.7 NNE 20 28 11 15 1004.3 1003.9 0.0
29/05:30am 16.2 11.5 10.7 70 3.0 NNE 26 33 14 18 1004.2 1003.7 0.0
29/05:00am 16.2 11.5 10.7 70 3.0 NE 26 35 14 19 1004.5 1004.1 0.0
29/04:30am 15.9 11.7 11.1 73 2.6 NE 24 30 13 16 1004.5 1004.1 0.0
29/04:00am 15.9 12.4 10.9 72 2.7 NE 20 30 11 16 1004.9 1004.5 0.0
29/03:30am 16.3 11.5 10.2 67 3.3 NNE 26 33 14 18 1005.5 1005.1 0.0
29/03:00am 17.1 11.4 9.8 62 3.9 NE 30 35 16 19 1005.5 1005.1 0.0
29/02:30am 17.5 12.5 9.7 60 4.1 NE 26 35 14 19 1005.4 1005.0 0.0
29/02:00am 16.8 13.1 10.2 65 3.5 NE 20 26 11 14 1005.9 1005.5 0.0
29/01:30am 16.6 13.2 10.5 67 3.3 NE 19 26 10 14 1006.4 1006.0 0.0
29/01:00am 16.7 13.9 10.1 65 3.5 NE 15 19 8 10 1007.2 1006.7 0.0
29/12:30am 16.6 12.9 10.0 65 3.5 NE 20 24 11 13 1007.5 1007.0 0.0
29/12:00am 16.5 12.8 10.1 66 3.4 NE 20 24 11 13 1007.9 1007.4 0.0
 
Date/Time
EST
Temp
°C
App
Temp
°C
Dew
Point
°C
Rel
Hum
%
Delta-T
°C
Wind Press
QNH
hPa
Press
MSL
hPa
Rain since
9am
mm
Dir  Spd
km/h
Gust
km/h
Spd
kts
Gust
kts
28/11:30pm 16.4 13.2 10.0 66 3.4 NE 17 19 9 10 1008.4 1008.0 0.0
28/11:00pm 16.2 13.4 10.1 67 3.2 NE 15 19 8 10 1009.1 1008.7 0.0
28/10:30pm 16.0 13.6 9.9 67 3.2 NE 13 17 7 9 1009.4 1009.0 0.0
28/10:00pm 16.6 14.1 9.8 64 3.6 NE 13 17 7 9 1009.9 1009.5 0.0
28/09:30pm 16.6 14.2 10.0 65 3.5 NE 13 17 7 9 1009.8 1009.4 0.0
28/09:00pm 16.9 14.1 10.1 64 3.6 NE 15 19 8 10 1010.1 1009.7 0.0
28/08:30pm 17.1 14.5 9.5 61 4.0 NE 13 15 7 8 1010.0 1009.6 0.0
28/08:00pm 17.5 14.7 9.9 61 4.1 NE 15 17 8 9 1010.2 1009.8 0.0
28/07:30pm 17.0 15.4 10.1 64 3.7 NE 9 13 5 7 1010.2 1009.8 0.0
28/07:00pm 18.1 16.6 10.5 61 4.1 NE 9 11 5 6 1010.3 1009.9 0.0
28/06:30pm 18.7 16.5 9.5 55 4.9 NE 11 13 6 7 1010.0 1009.6 0.0
28/06:00pm 19.5 18.0 9.1 51 5.5 NE 7 9 4 5 1010.0 1009.6 0.0
28/05:30pm 21.1 19.0 6.6 39 7.4 NW 7 9 4 5 1010.1 1009.7 0.0
28/05:00pm 21.5 19.3 6.2 37 7.8 NW 7 9 4 5 1009.8 1009.4 0.0
28/04:30pm 21.8 19.2 6.1 36 8.0 NW 9 13 5 7 1010.2 1009.8 0.0
28/04:00pm 22.9 20.1 7.1 36 8.3 NNW 11 15 6 8 1010.4 1010.0 0.0
28/03:30pm 22.7 20.4 5.6 33 8.7 W 7 11 4 6 1010.1 1009.7 0.0
28/03:00pm 22.4 19.0 4.0 30 9.1 NW 11 22 6 12 1010.6 1010.2 0.0
28/02:30pm 22.5 19.3 5.0 32 8.8 WNW 11 19 6 10 1011.1 1010.7 0.0
28/02:00pm 22.1 19.7 5.1 33 8.5 WSW 7 20 4 11 1011.6 1011.2 0.0
28/01:30pm 22.5 19.6 6.7 36 8.2 SSW 11 19 6 10 1012.3 1011.9 0.0
28/01:00pm 21.6 18.1 5.5 35 8.1 SW 13 19 7 10 1012.9 1012.5 0.0
28/12:30pm 21.3 16.9 4.8 34 8.2 WSW 17 20 9 11 1013.5 1013.1 0.0
28/12:00pm 20.8 16.6 5.6 37 7.6 SW 17 28 9 15 1013.7 1013.3 0.0
28/11:30am 20.6 18.1 6.5 40 7.2 SSW 9 13 5 7 1014.3 1013.9 0.0
28/11:00am 19.9 16.2 6.3 41 6.9 WSW 15 22 8 12 1014.7 1014.3 0.0
28/10:30am 19.7 18.2 10.4 55 5.1 W 9 17 5 9 1015.2 1014.8 0.0
28/10:00am 18.6 16.0 6.1 44 6.2 W 9 15 5 8 1015.3 1014.9 0.0
28/09:30am 17.7 15.3 6.9 49 5.4 NNE 9 13 5 7 1015.5 1015.1 0.0
28/09:00am 16.5 14.4 8.2 58 4.3 NE 9 13 5 7 1015.6 1015.2 0.0
28/08:30am 15.4 12.5 8.2 62 3.7 NE 13 15 7 8 1015.3 1014.9 0.0
28/08:00am 13.8 11.3 8.4 70 2.7 ENE 11 17 6 9 1015.0 1014.6 0.0
28/07:30am 12.9 10.3 9.2 78 1.9 E 13 17 7 9 1014.5 1014.1 0.0
28/07:00am 11.7 9.7 8.6 81 1.6 NE 9 11 5 6 1014.4 1014.0 0.0
28/06:30am 9.7 8.5 8.0 89 0.8 E 4 7 2 4 1014.1 1013.7 0.0
28/06:00am 7.8 5.6 6.4 91 0.6 E 7 9 4 5 1013.9 1013.5 0.0

Other Formats:

Comma delimited format used in spreadsheet applications
http://www.bom.gov.au/fwo/IDN60801/IDN60801.95527.axf

JavaScript Object Notation format (JSON) in row-major order
http://www.bom.gov.au/fwo/IDN60801/IDN60801.95527.json